Time;durP1;ratioP1;P1;durP2;ratioP2;P2;SDS_P1;SDS_P2;PMS_P1;PMS_P2;Temp;Humidity;BMP_temperature;BMP_pressure;BME280_temperature;BME280_humidity;BME280_pressure;Samples;Min_cycle;Max_cycle;Signal;HPM_P1;HPM_P2
2023/10/19 00:01:11;;;;;;;8.90;4.72;;;;;;;16.57;39.69;99784.94;5132603;27;20092;-65
2023/10/19 00:03:40;;;;;;;7.55;4.97;;;;;;;16.58;39.75;99792.03;5132739;27;20040;-66
2023/10/19 00:06:10;;;;;;;8.65;5.20;;;;;;;16.57;39.75;99790.34;5132497;27;20043;-64
2023/10/19 00:08:41;;;;;;;8.95;5.10;;;;;;;16.57;39.90;99782.25;5132629;27;20126;-65
2023/10/19 00:11:21;;;;;;;7.38;4.63;;;;;;;16.56;39.78;99779.72;5132504;27;20051;-65
2023/10/19 00:13:50;;;;;;;9.60;5.40;;;;;;;16.54;39.76;99774.47;5132721;27;20066;-65
2023/10/19 00:16:22;;;;;;;8.00;5.00;;;;;;;16.55;39.80;99769.94;5132605;27;20051;-67
2023/10/19 00:18:52;;;;;;;6.65;4.50;;;;;;;16.47;39.82;99750.94;5132555;27;20090;-65
2023/10/19 00:21:20;;;;;;;7.75;4.93;;;;;;;16.54;39.94;99757.47;5132460;27;20051;-65
2023/10/19 00:23:55;;;;;;;7.05;4.53;;;;;;;16.54;39.81;99757.47;5132254;27;20058;-65
2023/10/19 00:26:25;;;;;;;7.85;4.88;;;;;;;16.51;39.87;99750.53;5132699;27;20040;-65
2023/10/19 00:28:55;;;;;;;7.72;4.95;;;;;;;16.52;39.88;99744.16;5132516;27;20134;-64
2023/10/19 00:31:23;;;;;;;7.63;4.43;;;;;;;16.51;39.97;99755.94;5132456;27;20044;-64
2023/10/19 00:33:54;;;;;;;7.68;5.07;;;;;;;16.49;39.86;99749.81;5133031;27;20050;-64
2023/10/19 00:36:23;;;;;;;7.03;4.60;;;;;;;16.49;39.97;99749.81;5136265;27;20043;-64
2023/10/19 00:38:53;;;;;;;8.88;4.78;;;;;;;16.50;39.89;99745.28;5136338;27;20058;-64
2023/10/19 00:41:27;;;;;;;6.78;4.60;;;;;;;16.48;39.84;99734.66;5136243;27;20078;-64
2023/10/19 00:44:03;;;;;;;9.00;5.40;;;;;;;16.49;40.03;99739.03;5136201;27;20054;-64
2023/10/19 00:46:37;;;;;;;6.80;5.03;;;;;;;16.46;39.96;99730.41;5136211;27;20119;-64
2023/10/19 00:49:09;;;;;;;7.55;4.82;;;;;;;16.48;40.02;99731.13;5136407;27;20050;-64
2023/10/19 00:51:50;;;;;;;7.95;5.15;;;;;;;16.48;40.12;99741.88;5136254;27;20077;-64
2023/10/19 00:54:26;;;;;;;7.68;5.00;;;;;;;16.47;40.19;99727.56;5135955;27;20047;-64
2023/10/19 00:56:58;;;;;;;9.07;5.18;;;;;;;16.47;39.94;99730.25;5135795;27;20047;-64
2023/10/19 00:59:30;;;;;;;6.72;4.88;;;;;;;16.47;40.13;99724.88;5136094;27;20082;-64
2023/10/19 01:02:16;;;;;;;6.90;4.88;;;;;;;16.46;40.07;99717.81;5135874;27;20043;-63
2023/10/19 01:04:50;;;;;;;7.60;4.88;;;;;;;16.45;40.08;99705.34;5135862;27;20051;-64
2023/10/19 01:07:22;;;;;;;7.90;4.90;;;;;;;16.45;40.04;99707.19;5135588;27;20051;-64
2023/10/19 01:09:53;;;;;;;7.82;5.05;;;;;;;16.45;40.12;99699.94;5135580;27;20132;-64
2023/10/19 01:12:33;;;;;;;7.45;4.85;;;;;;;16.44;40.12;99695.56;5135692;27;20133;-64
2023/10/19 01:15:07;;;;;;;7.18;4.68;;;;;;;16.43;39.99;99693.88;5135707;27;20043;-63
2023/10/19 01:17:39;;;;;;;7.45;4.90;;;;;;;16.44;40.17;99697.41;5135444;27;20108;-63
2023/10/19 01:20:19;;;;;;;7.05;4.72;;;;;;;16.42;40.21;99694.88;5135593;27;20047;-64
2023/10/19 01:25:49;;;;;;;7.38;4.85;;;;;;;16.41;40.25;99698.56;5134543;27;20043;-63
2023/10/19 01:28:19;;;;;;;8.63;5.07;;;;;;;16.41;40.24;99695.88;5135405;27;20047;-63
2023/10/19 01:30:51;;;;;;;8.07;5.00;;;;;;;16.41;40.21;99687.78;5135252;27;20054;-64
2023/10/19 01:33:22;;;;;;;7.43;4.95;;;;;;;16.39;40.24;99678.97;5135395;27;20050;-63
2023/10/19 01:38:40;;;;;;;6.75;4.40;;;;;;;16.40;40.29;99680.69;5131543;27;20043;-65
2023/10/19 01:41:13;;;;;;;7.93;5.00;;;;;;;16.39;40.05;99670.06;5134993;27;20088;-65
2023/10/19 01:43:42;;;;;;;;;;;;;;;16.39;40.19;99664.69;5135412;27;20057;-64
2023/10/19 01:46:13;;;;;;;7.35;5.03;;;;;;;16.39;40.18;99653.91;5134431;27;19926;-64
2023/10/19 01:48:43;;;;;;;7.22;4.40;;;;;;;16.37;40.20;99654.06;5134994;27;20040;-64
2023/10/19 01:51:12;;;;;;;6.82;4.50;;;;;;;16.38;40.35;99654.91;5134824;27;20039;-64
2023/10/19 01:53:44;;;;;;;7.65;5.22;;;;;;;16.37;40.32;99654.06;5134691;27;20491;-65
2023/10/19 01:56:12;;;;;;;7.00;4.60;;;;;;;16.37;40.41;99653.22;5134978;27;20051;-64
2023/10/19 01:58:46;;;;;;;7.80;4.75;;;;;;;16.36;40.40;99640.75;5134936;27;20449;-64
2023/10/19 02:01:20;;;;;;;7.22;4.63;;;;;;;16.36;40.31;99641.59;5134626;27;20054;-65
2023/10/19 02:03:54;;;;;;;6.95;4.90;;;;;;;16.35;40.40;99641.75;5134469;27;20051;-65
2023/10/19 02:06:26;;;;;;;7.55;4.88;;;;;;;16.35;40.44;99634.53;5134501;27;20497;-64
2023/10/19 02:09:04;;;;;;;6.70;4.38;;;;;;;16.34;40.50;99638.22;5134725;27;20070;-64
2023/10/19 02:11:37;;;;;;;7.70;4.97;;;;;;;16.31;40.52;99635.81;5134854;27;20411;-64
2023/10/19 02:14:13;;;;;;;7.38;4.97;;;;;;;16.34;40.57;99640.91;5134524;27;20043;-63
2023/10/19 02:16:43;;;;;;;7.00;4.50;;;;;;;16.33;40.53;99636.50;5134269;27;20495;-64
2023/10/19 02:19:11;;;;;;;8.15;4.53;;;;;;;16.34;40.38;99634.66;5134487;27;20043;-64
2023/10/19 02:21:40;;;;;;;7.93;5.35;;;;;;;16.32;40.52;99634.81;5134178;27;20047;-64
2023/10/19 02:24:14;;;;;;;7.97;5.25;;;;;;;16.33;40.59;99628.44;5134062;27;20074;-64
2023/10/19 02:26:42;;;;;;;7.57;4.97;;;;;;;16.32;40.72;99624.06;5134226;27;20046;-64
2023/10/19 02:29:12;;;;;;;8.35;5.13;;;;;;;16.30;40.44;99620.63;5134185;27;20040;-64
2023/10/19 02:31:42;;;;;;;8.02;5.07;;;;;;;16.29;40.62;99619.78;5134185;27;20055;-65
2023/10/19 02:34:11;;;;;;;7.25;5.30;;;;;;;16.29;40.60;99617.09;5134127;27;20050;-65
2023/10/19 02:36:40;;;;;;;7.55;4.85;;;;;;;16.28;40.71;99617.25;5133970;27;20108;-64
2023/10/19 02:39:10;;;;;;;9.13;5.03;;;;;;;16.27;40.70;99607.47;5133900;27;20047;-65
2023/10/19 02:41:39;;;;;;;7.65;4.85;;;;;;;16.27;40.81;99613.72;5133671;27;20135;-65
2023/10/19 02:44:09;;;;;;;7.75;5.50;;;;;;;16.28;40.75;99617.25;5134082;27;20043;-65
2023/10/19 02:46:39;;;;;;;8.40;5.18;;;;;;;16.27;40.75;99610.16;5133906;27;20051;-65
2023/10/19 02:49:11;;;;;;;7.25;5.25;;;;;;;16.26;40.82;99597.72;5133828;27;20133;-65
2023/10/19 02:51:41;;;;;;;7.25;4.95;;;;;;;16.26;40.84;99601.25;5133602;27;20054;-65
2023/10/19 02:54:19;;;;;;;7.63;5.18;;;;;;;16.25;40.95;99590.63;5133461;27;20043;-65
2023/10/19 02:56:49;;;;;;;7.43;4.75;;;;;;;16.26;40.79;99592.31;5133717;27;20051;-65
2023/10/19 02:59:22;;;;;;;6.68;4.78;;;;;;;16.26;41.09;99586.94;5133732;27;20055;-66
2023/10/19 03:01:51;;;;;;;7.20;4.75;;;;;;;16.24;40.88;99588.94;5133545;27;20105;-65
2023/10/19 03:04:19;;;;;;;9.52;5.22;;;;;;;16.24;40.95;99578.19;5133760;27;20055;-65
2023/10/19 03:06:49;;;;;;;7.32;5.20;;;;;;;16.23;41.09;99573.78;5133219;27;20086;-65
2023/10/19 03:09:28;;;;;;;7.72;5.18;;;;;;;16.22;41.21;99574.78;5133484;27;20047;-65
2023/10/19 03:11:59;;;;;;;7.22;4.95;;;;;;;16.22;41.15;99572.09;5133380;27;20047;-65
2023/10/19 03:14:28;;;;;;;6.93;4.90;;;;;;;16.20;41.12;99556.06;5133236;27;20134;-65
2023/10/19 03:16:57;;;;;;;8.15;5.65;;;;;;;16.19;41.20;99543.63;5133200;27;20460;-66
2023/10/19 03:19:26;;;;;;;8.10;5.15;;;;;;;16.20;41.25;99544.47;5133373;27;20081;-66
2023/10/19 03:21:55;;;;;;;7.28;5.00;;;;;;;16.19;41.22;99542.78;5133063;27;20055;-65
2023/10/19 03:24:42;;;;;;;8.90;5.28;;;;;;;16.19;41.17;99542.78;5133064;27;20139;-66
2023/10/19 03:27:18;;;;;;;8.13;5.65;;;;;;;16.17;41.21;99532.16;5133027;27;20039;-66
2023/10/19 03:29:53;;;;;;;8.73;5.28;;;;;;;16.18;41.26;99524.94;5132886;27;20093;-66
2023/10/19 03:32:26;;;;;;;7.70;5.30;;;;;;;16.18;41.29;99528.47;5133100;27;20088;-65
2023/10/19 03:34:56;;;;;;;8.13;5.40;;;;;;;16.17;41.28;99523.25;5133017;27;20039;-65
2023/10/19 03:37:29;;;;;;;7.70;5.70;;;;;;;16.17;41.58;99524.09;5133050;27;20427;-65
2023/10/19 03:39:59;;;;;;;7.20;5.38;;;;;;;16.18;41.40;99522.25;5132788;27;20051;-65
2023/10/19 03:42:32;;;;;;;;;;;;;;;16.17;41.38;99523.25;5132472;27;20432;-65
2023/10/19 03:45:07;;;;;;;10.13;6.13;;;;;;;16.16;41.36;99527.78;5133117;27;19955;-65
2023/10/19 03:47:38;;;;;;;11.55;6.85;;;;;;;16.14;41.55;99516.31;5132914;27;20452;-65
2023/10/19 03:50:07;;;;;;;9.93;5.88;;;;;;;16.13;41.50;99514.63;5131559;28;20043;-65
2023/10/19 03:52:38;;;;;;;8.27;5.68;;;;;;;16.14;41.51;99510.94;5132635;27;20411;-65
2023/10/19 03:55:15;;;;;;;8.15;5.78;;;;;;;16.14;41.50;99518.16;5132987;27;20134;-64
2023/10/19 03:57:46;;;;;;;8.93;5.75;;;;;;;16.07;41.67;99496.34;5132800;27;20047;-65
2023/10/19 04:00:19;;;;;;;8.48;5.60;;;;;;;16.13;41.57;99508.41;5132530;27;20646;-64
2023/10/19 04:02:47;;;;;;;6.88;4.97;;;;;;;16.12;41.74;99506.69;5132788;27;20047;-64
2023/10/19 04:05:21;;;;;;;8.15;5.35;;;;;;;16.12;41.66;99507.53;5132581;27;20045;-64
2023/10/19 04:07:54;;;;;;;7.25;5.57;;;;;;;16.11;41.68;99507.66;5132537;27;20043;-64
2023/10/19 04:10:38;;;;;;;9.10;6.22;;;;;;;16.11;41.75;99505.81;5136184;27;20099;-64
2023/10/19 04:13:09;;;;;;;7.80;5.50;;;;;;;16.12;41.74;99493.25;5136918;27;20130;-64
2023/10/19 04:15:42;;;;;;;8.32;5.63;;;;;;;16.08;41.73;99487.28;5136618;27;20043;-64
2023/10/19 04:18:10;;;;;;;8.32;5.97;;;;;;;16.09;41.71;99488.97;5136880;27;20052;-64
2023/10/19 04:20:58;;;;;;;7.32;5.60;;;;;;;16.10;41.73;99473.69;5137170;27;20043;-64
2023/10/19 04:23:28;;;;;;;8.82;5.63;;;;;;;16.10;41.84;99473.69;5136535;27;20055;-65
2023/10/19 04:25:58;;;;;;;9.13;5.80;;;;;;;16.10;41.72;99471.00;5136345;27;20082;-64
2023/10/19 04:28:38;;;;;;;8.27;5.90;;;;;;;16.09;41.72;99472.00;5136550;27;20129;-64
2023/10/19 04:31:07;;;;;;;9.00;5.82;;;;;;;16.09;41.72;99456.69;5136279;27;20078;-65
2023/10/19 04:33:36;;;;;;;8.25;5.90;;;;;;;16.09;41.76;99456.69;5136404;27;20407;-64
2023/10/19 04:36:08;;;;;;;7.53;5.28;;;;;;;16.08;41.81;99457.69;5136287;27;20044;-64
2023/10/19 04:38:36;;;;;;;8.85;6.13;;;;;;;16.07;41.79;99457.84;5136094;27;20046;-64
2023/10/19 04:41:08;;;;;;;8.32;5.60;;;;;;;16.08;41.96;99452.31;5135934;27;20055;-64
2023/10/19 04:43:37;;;;;;;7.15;5.13;;;;;;;16.08;41.86;99446.09;5136257;27;20043;-62
2023/10/19 04:46:10;;;;;;;9.48;5.85;;;;;;;16.07;41.95;99441.72;5136116;27;20070;-64
2023/10/19 04:48:43;;;;;;;7.90;5.90;;;;;;;16.07;41.84;99441.72;5136052;27;20126;-64
2023/10/19 04:51:12;;;;;;;8.93;6.03;;;;;;;16.07;41.93;99447.09;5135722;27;20049;-64
2023/10/19 04:53:42;;;;;;;7.28;5.28;;;;;;;16.07;41.98;99456.00;5135988;27;20081;-64
2023/10/19 04:56:12;;;;;;;10.00;6.05;;;;;;;16.07;41.97;99441.72;5135479;27;20494;-64
2023/10/19 04:58:44;;;;;;;7.55;5.32;;;;;;;16.04;41.96;99432.09;5135663;27;20446;-64
2023/10/19 05:01:12;;;;;;;7.78;5.70;;;;;;;16.05;42.05;99428.41;5135542;27;20499;-64
2023/10/19 05:03:40;;;;;;;7.95;6.10;;;;;;;16.05;42.04;99430.25;5135594;27;20504;-64
2023/10/19 05:06:10;;;;;;;8.27;5.50;;;;;;;16.05;42.08;99441.03;5135521;27;20153;-64
2023/10/19 05:08:38;;;;;;;7.43;5.28;;;;;;;16.03;42.11;99439.31;5135596;27;20044;-64
2023/10/19 05:11:07;;;;;;;8.35;5.55;;;;;;;16.04;42.23;99442.88;5135705;27;20402;-64
2023/10/19 05:13:36;;;;;;;7.88;5.68;;;;;;;16.04;42.12;99442.88;5135422;27;20418;-64
2023/10/19 05:16:05;;;;;;;7.93;5.75;;;;;;;16.02;42.23;99436.78;5135144;27;20088;-65
2023/10/19 05:18:34;;;;;;;7.75;5.45;;;;;;;16.03;42.17;99443.88;5135184;27;20047;-64
2023/10/19 05:21:02;;;;;;;7.35;5.20;;;;;;;16.03;42.22;99441.16;5134054;27;20043;-63
2023/10/19 05:23:30;;;;;;;7.45;5.55;;;;;;;16.03;42.15;99443.88;5135226;27;20082;-63
2023/10/19 05:26:06;;;;;;;8.75;5.43;;;;;;;16.02;42.13;99444.84;5134939;27;20043;-66
2023/10/19 05:28:36;;;;;;;8.60;6.15;;;;;;;16.01;42.28;99446.66;5134834;27;20088;-64
2023/10/19 05:31:04;;;;;;;7.78;5.80;;;;;;;16.01;42.19;99443.97;5134774;27;20043;-64
2023/10/19 05:33:32;;;;;;;8.98;6.07;;;;;;;16.01;42.25;99443.97;5134778;27;20047;-64
2023/10/19 05:36:01;;;;;;;7.45;5.65;;;;;;;16.00;42.20;99439.59;5134392;27;20043;-64
2023/10/19 05:38:31;;;;;;;7.68;5.45;;;;;;;15.99;42.22;99440.59;5134817;27;20043;-65
2023/10/19 05:41:00;;;;;;;10.18;6.10;;;;;;;15.99;42.22;99443.28;5135105;27;20039;-64
2023/10/19 05:43:30;;;;;;;7.50;5.78;;;;;;;16.01;42.27;99443.13;5134511;27;20055;-65
2023/10/19 05:46:00;;;;;;;8.60;6.28;;;;;;;16.00;42.30;99446.81;5134808;27;20503;-65
2023/10/19 05:48:28;;;;;;;7.97;6.00;;;;;;;16.00;42.43;99441.44;5134646;27;20053;-63
2023/10/19 05:50:56;;;;;;;8.20;5.95;;;;;;;15.99;42.44;99435.22;5133791;27;20047;-65
2023/10/19 05:53:24;;;;;;;8.73;5.93;;;;;;;15.99;42.38;99442.44;5134360;27;20488;-68
2023/10/19 05:55:53;;;;;;;7.53;5.72;;;;;;;15.97;42.19;99436.38;5134323;27;20047;-65
2023/10/19 05:58:21;;;;;;;7.65;5.70;;;;;;;15.98;42.50;99433.53;5135821;27;20058;-62
2023/10/19 06:00:51;;;;;;;8.05;6.10;;;;;;;15.98;42.34;99427.31;5134511;27;20055;-66
2023/10/19 06:03:21;;;;;;;8.00;5.47;;;;;;;15.98;42.46;99433.53;5134307;27;20055;-65
2023/10/19 06:05:50;;;;;;;7.05;5.18;;;;;;;15.97;42.45;99439.06;5134229;27;20134;-64
2023/10/19 06:08:18;;;;;;;7.85;5.50;;;;;;;15.96;42.60;99443.59;5132880;27;20038;-64
2023/10/19 06:10:51;;;;;;;8.45;5.88;;;;;;;15.95;42.36;99436.50;5134301;27;20088;-65
2023/10/19 06:13:20;;;;;;;8.43;5.72;;;;;;;15.96;42.48;99440.91;5134498;27;20403;-64
2023/10/19 06:15:49;;;;;;;9.00;5.85;;;;;;;15.95;42.63;99441.91;5134388;27;20055;-64
2023/10/19 06:18:17;;;;;;;7.75;5.47;;;;;;;15.97;42.48;99436.38;5134236;27;20050;-66
2023/10/19 06:20:48;;;;;;;9.43;6.22;;;;;;;15.96;42.42;99430.13;5134170;27;20039;-64
2023/10/19 06:23:17;;;;;;;7.90;5.57;;;;;;;15.95;42.66;99417.69;5133789;27;20496;-64
2023/10/19 06:25:46;;;;;;;7.90;5.55;;;;;;;15.96;42.51;99419.38;5134030;27;20043;-64
2023/10/19 06:28:15;;;;;;;9.05;6.10;;;;;;;15.96;42.60;99414.00;5134156;27;20076;-65
2023/10/19 06:30:45;;;;;;;7.50;6.00;;;;;;;15.95;42.62;99412.31;5134030;27;20047;-65
2023/10/19 06:33:13;;;;;;;7.50;5.40;;;;;;;15.95;42.55;99412.31;5133617;27;20341;-64
2023/10/19 06:35:42;;;;;;;8.05;5.50;;;;;;;15.95;42.55;99398.88;5133565;27;20054;-64
2023/10/19 06:38:12;;;;;;;9.43;6.55;;;;;;;15.95;42.71;99412.31;5133815;27;20074;-64
2023/10/19 06:40:40;;;;;;;8.48;5.53;;;;;;;15.94;42.58;99404.41;5133585;27;20456;-64
2023/10/19 06:43:08;;;;;;;7.43;5.20;;;;;;;15.94;42.64;99391.78;5133749;27;20051;-65
2023/10/19 06:45:37;;;;;;;8.85;6.15;;;;;;;15.94;42.75;99399.00;5133590;27;20510;-66
2023/10/19 06:48:06;;;;;;;9.00;5.95;;;;;;;15.94;42.87;99405.25;5133641;27;20043;-64
2023/10/19 06:50:36;;;;;;;6.50;4.70;;;;;;;15.93;42.70;99410.78;5133548;27;20138;-67
2023/10/19 06:53:05;;;;;;;7.97;5.40;;;;;;;15.95;42.78;99419.53;5133439;27;20035;-65
2023/10/19 06:55:35;;;;;;;9.00;6.22;;;;;;;15.94;42.86;99421.38;5133006;27;20047;-63
2023/10/19 06:58:04;;;;;;;8.27;6.05;;;;;;;15.94;42.90;99416.00;5133227;27;20381;-64
2023/10/19 07:00:33;;;;;;;7.40;5.97;;;;;;;15.93;42.71;99408.94;5131675;27;20050;-64
2023/10/19 07:03:02;;;;;;;8.98;6.00;;;;;;;15.95;42.85;99400.72;5131031;27;20541;-64
2023/10/19 07:05:31;;;;;;;9.13;5.63;;;;;;;15.93;42.87;99397.31;5131289;27;20426;-64
2023/10/19 07:08:01;;;;;;;8.55;6.15;;;;;;;15.92;43.09;99391.09;5131873;27;20043;-64
2023/10/19 07:10:30;;;;;;;7.50;6.03;;;;;;;15.93;43.14;99392.78;5132181;27;20055;-65
2023/10/19 07:12:59;;;;;;;9.25;6.43;;;;;;;15.93;43.04;99392.78;5132052;27;20047;-64
2023/10/19 07:15:29;;;;;;;9.60;6.85;;;;;;;15.92;43.04;99385.72;5132466;27;20075;-64
2023/10/19 07:17:58;;;;;;;8.35;6.10;;;;;;;15.91;43.05;99373.25;5133159;27;20054;-64
2023/10/19 07:20:28;;;;;;;8.55;6.13;;;;;;;15.92;43.02;99380.34;5133049;27;20051;-64
2023/10/19 07:23:00;;;;;;;10.10;6.95;;;;;;;15.94;43.08;99382.88;5132585;27;20172;-65
2023/10/19 07:25:29;;;;;;;7.75;5.88;;;;;;;15.94;43.10;99372.13;5132540;27;20039;-65
2023/10/19 07:27:59;;;;;;;8.73;5.85;;;;;;;15.94;43.15;99369.44;5132620;27;20043;-65
2023/10/19 07:30:30;;;;;;;9.55;6.15;;;;;;;15.93;43.10;99373.97;5132585;27;20043;-65
2023/10/19 07:32:59;;;;;;;9.43;6.13;;;;;;;15.93;43.01;99371.28;5132895;27;20039;-64
2023/10/19 07:35:30;;;;;;;10.02;6.57;;;;;;;15.94;43.18;99374.81;5132488;27;20511;-65
2023/10/19 07:38:03;;;;;;;8.93;6.55;;;;;;;15.93;43.11;99371.28;5132642;27;20084;-65
2023/10/19 07:40:32;;;;;;;8.50;6.03;;;;;;;15.93;43.18;99365.91;5132635;27;20138;-64
2023/10/19 07:43:03;;;;;;;8.93;6.18;;;;;;;15.93;43.25;99365.91;5132452;27;20478;-65
2023/10/19 07:45:34;;;;;;;9.45;6.18;;;;;;;15.94;43.23;99361.38;5132407;27;20073;-64
2023/10/19 07:48:06;;;;;;;9.07;6.35;;;;;;;15.94;43.23;99345.22;5131136;27;20399;-65
2023/10/19 07:50:36;;;;;;;7.22;5.32;;;;;;;15.93;43.21;99339.00;5132327;27;20511;-65
2023/10/19 07:53:05;;;;;;;8.32;5.72;;;;;;;15.93;43.24;99339.00;5132184;27;20412;-64
2023/10/19 07:55:38;;;;;;;7.90;5.85;;;;;;;15.94;43.34;99345.22;5132663;27;20039;-64
2023/10/19 07:58:08;;;;;;;8.95;5.75;;;;;;;15.94;43.35;99335.31;5132632;27;20189;-65
2023/10/19 08:00:37;;;;;;;7.65;5.75;;;;;;;15.94;43.34;99329.94;5132175;27;20499;-64
2023/10/19 08:03:06;;;;;;;7.70;5.60;;;;;;;15.95;43.42;99330.78;5132372;27;20307;-65
2023/10/19 08:05:38;;;;;;;8.02;5.47;;;;;;;15.95;43.31;99328.94;5132075;27;20063;-65
2023/10/19 08:08:07;;;;;;;8.90;6.53;;;;;;;15.96;43.54;99332.47;5132419;27;20548;-65
2023/10/19 08:10:38;;;;;;;8.10;5.35;;;;;;;15.95;43.42;99320.88;5132349;27;20134;-64
2023/10/19 08:13:12;;;;;;;8.43;5.65;;;;;;;15.96;43.41;99319.88;5132427;27;20047;-64
2023/10/19 08:15:41;;;;;;;8.05;5.78;;;;;;;15.96;43.49;99321.72;5132332;27;20090;-64
2023/10/19 08:18:12;;;;;;;9.00;5.93;;;;;;;15.95;43.41;99314.66;5131971;27;20508;-64
2023/10/19 08:20:40;;;;;;;8.45;5.97;;;;;;;15.95;43.52;99315.50;5132494;27;20404;-64
2023/10/19 08:23:08;;;;;;;8.68;5.80;;;;;;;15.97;43.44;99318.03;5132028;27;20145;-65
2023/10/19 08:25:37;;;;;;;7.60;5.57;;;;;;;15.95;43.50;99302.03;5132197;27;20051;-65
2023/10/19 08:28:10;;;;;;;8.10;5.78;;;;;;;15.97;43.55;99301.88;5132183;27;20131;-64
2023/10/19 08:30:40;;;;;;;7.95;5.25;;;;;;;15.98;43.46;99304.41;5132040;27;20046;-65
2023/10/19 08:33:08;;;;;;;7.47;5.80;;;;;;;15.99;43.45;99300.72;5132382;27;20043;-64
2023/10/19 08:35:37;;;;;;;8.50;5.40;;;;;;;16.00;43.67;99304.28;5132294;27;20126;-64
2023/10/19 08:38:11;;;;;;;8.68;6.30;;;;;;;15.99;43.46;99305.28;5132209;27;20054;-64
2023/10/19 08:40:39;;;;;;;7.40;5.18;;;;;;;15.99;43.70;99300.72;5132227;27;20158;-64
2023/10/19 08:43:13;;;;;;;9.05;6.00;;;;;;;15.99;43.46;99297.19;5131993;27;20095;-64
2023/10/19 08:45:43;;;;;;;7.80;5.65;;;;;;;16.00;43.49;99297.03;5132303;27;20051;-65
2023/10/19 08:48:12;;;;;;;8.00;6.00;;;;;;;16.01;43.45;99295.19;5132146;27;20092;-64
2023/10/19 08:50:41;;;;;;;8.30;5.75;;;;;;;16.01;43.54;99282.59;5132109;27;20135;-65
2023/10/19 08:53:10;;;;;;;6.60;5.18;;;;;;;16.01;43.42;99287.97;5131900;27;20055;-63
2023/10/19 08:55:38;;;;;;;8.10;5.95;;;;;;;16.03;43.50;99282.47;5133619;27;20039;-63
2023/10/19 08:58:19;;;;;;;8.95;5.90;;;;;;;16.03;43.56;99274.41;5135556;27;20104;-66
2023/10/19 09:00:53;;;;;;;9.10;5.90;;;;;;;16.04;43.72;99278.78;5135795;27;20502;-63
2023/10/19 09:03:22;;;;;;;8.07;5.40;;;;;;;16.05;43.48;99276.94;5135438;27;20068;-63
2023/10/19 09:05:53;;;;;;;6.80;5.30;;;;;;;16.06;43.74;99265.19;5135454;27;20039;-64
2023/10/19 09:08:22;;;;;;;8.88;6.00;;;;;;;16.07;43.69;99269.56;5135369;27;20047;-65
2023/10/19 09:10:53;;;;;;;11.63;6.20;;;;;;;16.08;43.75;99276.63;5135653;27;20051;-64
2023/10/19 09:13:23;;;;;;;7.68;5.65;;;;;;;16.08;43.70;99258.66;5135642;27;20142;-64
2023/10/19 09:15:55;;;;;;;7.30;5.03;;;;;;;16.10;43.51;99263.88;5135169;27;20183;-65
2023/10/19 09:18:27;;;;;;;6.50;5.00;;;;;;;16.09;43.70;99251.41;5135277;27;20563;-64
2023/10/19 09:21:02;;;;;;;7.38;5.45;;;;;;;16.12;43.61;99265.44;5134841;27;20104;-64
2023/10/19 09:23:31;;;;;;;7.60;5.35;;;;;;;16.15;43.57;99264.28;5135029;27;20051;-64
2023/10/19 09:26:03;;;;;;;7.07;4.95;;;;;;;16.15;43.63;99261.59;5135140;27;20108;-64
2023/10/19 09:28:36;;;;;;;7.53;5.45;;;;;;;16.18;43.47;99263.97;5135354;27;20047;-64
2023/10/19 09:31:05;;;;;;;6.93;5.18;;;;;;;16.21;43.46;99255.56;5135103;27;20100;-64
2023/10/19 09:33:34;;;;;;;7.35;5.30;;;;;;;16.20;43.49;99246.66;5135491;27;20046;-65
2023/10/19 09:36:12;;;;;;;7.13;5.30;;;;;;;16.23;43.44;99254.44;5134983;27;20066;-65
2023/10/19 09:38:47;;;;;;;8.93;5.40;;;;;;;16.25;43.44;99247.06;5135101;27;20049;-65
2023/10/19 09:41:17;;;;;;;7.32;5.53;;;;;;;16.26;43.42;99250.59;5134845;27;20050;-64
2023/10/19 09:43:49;;;;;;;8.20;5.88;;;;;;;16.28;43.46;99241.38;5134493;27;20400;-65
2023/10/19 09:46:23;;;;;;;6.13;5.15;;;;;;;16.30;43.34;99254.66;5134849;27;20057;-65
2023/10/19 09:48:52;;;;;;;7.75;5.57;;;;;;;16.29;43.36;99248.44;5134741;27;20503;-65
2023/10/19 09:51:21;;;;;;;6.47;4.90;;;;;;;16.31;43.53;99240.22;5134773;27;20039;-65
2023/10/19 09:53:54;;;;;;;8.05;5.43;;;;;;;16.35;43.37;99228.16;5134542;27;20047;-65
2023/10/19 09:56:34;;;;;;;7.70;5.20;;;;;;;16.36;43.37;99224.47;5134763;27;20043;-65
2023/10/19 09:59:07;;;;;;;7.25;4.85;;;;;;;16.38;43.41;99230.53;5134231;27;20116;-65
2023/10/19 10:02:07;;;;;;;6.15;4.72;;;;;;;16.38;43.55;99214.38;5134529;27;20061;-65
2023/10/19 10:04:36;;;;;;;8.25;5.03;;;;;;;16.37;43.40;99199.22;5070762;28;20207;-64
2023/10/19 10:07:07;;;;;;;6.60;4.80;;;;;;;16.40;43.53;99207.00;5120847;27;20047;-65
2023/10/19 10:09:39;;;;;;;7.60;5.38;;;;;;;16.42;43.55;99201.47;5134282;27;20047;-65
2023/10/19 10:12:19;;;;;;;7.75;5.03;;;;;;;16.43;43.38;99189.72;5134476;27;20051;-64
2023/10/19 10:14:59;;;;;;;6.97;4.93;;;;;;;16.44;43.24;99194.09;5134145;27;20039;-65
2023/10/19 10:17:27;;;;;;;7.75;5.45;;;;;;;16.46;43.46;99184.00;5133677;27;20142;-64
2023/10/19 10:19:59;;;;;;;6.93;5.10;;;;;;;16.49;43.22;99175.59;5134295;27;20135;-65
2023/10/19 10:22:28;;;;;;;7.57;5.07;;;;;;;16.53;43.45;99169.78;5133791;27;20074;-65
2023/10/19 10:24:56;;;;;;;8.68;5.10;;;;;;;16.50;43.52;99170.09;5133973;27;20043;-65
2023/10/19 10:27:25;;;;;;;7.07;5.47;;;;;;;16.52;43.50;99170.78;5134082;27;20039;-65
2023/10/19 10:29:59;;;;;;;6.85;5.20;;;;;;;16.53;43.40;99159.00;5133616;27;20047;-64
2023/10/19 10:32:44;;;;;;;6.95;5.10;;;;;;;16.53;43.57;99142.84;5134046;27;20104;-65
2023/10/19 10:35:46;;;;;;;8.30;5.03;;;;;;;16.56;43.53;99147.91;5133855;27;20117;-65
2023/10/19 10:38:14;;;;;;;7.78;5.03;;;;;;;16.57;43.73;99138.00;5133644;27;20122;-65
2023/10/19 10:40:47;;;;;;;6.57;4.95;;;;;;;16.57;43.51;99136.16;5133904;27;20104;-65
2023/10/19 10:43:19;;;;;;;7.78;5.40;;;;;;;16.57;43.66;99144.22;5133843;27;20047;-65
2023/10/19 10:45:49;;;;;;;7.55;5.30;;;;;;;16.58;43.78;99139.69;5133490;27;20199;-65
2023/10/19 10:48:19;;;;;;;7.22;5.40;;;;;;;16.58;43.75;99129.75;5133331;27;20051;-64
2023/10/19 10:50:48;;;;;;;7.18;5.35;;;;;;;16.58;43.65;99127.06;5133114;27;20396;-65
2023/10/19 10:53:17;;;;;;;7.45;5.35;;;;;;;16.58;43.77;99128.91;5133589;27;20051;-65
2023/10/19 10:55:48;;;;;;;6.82;4.95;;;;;;;16.58;43.80;99124.38;5133233;27;20511;-64
2023/10/19 10:58:17;;;;;;;6.95;5.03;;;;;;;16.59;43.74;99117.97;5133675;27;20054;-65
2023/10/19 11:00:46;;;;;;;7.50;5.75;;;;;;;16.60;43.94;99118.84;5133415;27;20055;-64
2023/10/19 11:03:16;;;;;;;7.20;4.95;;;;;;;16.61;43.98;99107.06;5133140;27;20184;-65
2023/10/19 11:05:46;;;;;;;7.25;5.40;;;;;;;16.62;44.04;99097.16;5133276;27;20129;-65
2023/10/19 11:08:16;;;;;;;6.80;4.95;;;;;;;16.66;43.91;99093.13;5133403;27;20185;-65
2023/10/19 11:10:46;;;;;;;6.22;4.90;;;;;;;16.70;43.83;99094.56;5133289;27;20468;-65
2023/10/19 11:13:16;;;;;;;8.00;5.55;;;;;;;16.78;43.64;99089.19;5132955;27;20047;-66
2023/10/19 11:15:50;;;;;;;7.50;4.78;;;;;;;16.86;43.51;99089.22;5132919;27;20054;-63
2023/10/19 11:18:35;;;;;;;7.05;5.55;;;;;;;17.05;43.22;99082.75;5132476;27;20407;-65
2023/10/19 11:21:07;;;;;;;9.02;5.68;;;;;;;16.97;43.51;99083.56;5132902;27;20549;-64
2023/10/19 11:23:43;;;;;;;7.63;5.43;;;;;;;16.94;43.57;99078.50;5132573;27;20457;-63
2023/10/19 11:26:12;;;;;;;6.85;5.00;;;;;;;16.97;43.55;99075.47;5132812;27;20057;-63
2023/10/19 11:28:47;;;;;;;8.20;5.32;;;;;;;17.09;43.46;99068.81;5132677;27;20079;-64
2023/10/19 11:31:18;;;;;;;6.93;5.03;;;;;;;17.15;43.25;99078.94;5132948;27;20427;-64
2023/10/19 11:33:49;;;;;;;7.13;5.05;;;;;;;17.22;43.16;99075.59;5132878;27;20050;-64
2023/10/19 11:36:20;;;;;;;7.82;5.50;;;;;;;17.22;43.09;99067.50;5132665;27;20053;-64
2023/10/19 11:38:49;;;;;;;7.30;5.43;;;;;;;17.26;43.09;99063.47;5132486;27;20086;-64
2023/10/19 11:41:20;;;;;;;6.88;5.15;;;;;;;17.25;43.15;99064.47;5132845;27;20047;-64
2023/10/19 11:43:49;;;;;;;6.10;4.80;;;;;;;17.29;43.06;99058.63;5132434;27;20185;-64
2023/10/19 11:46:18;;;;;;;7.88;5.30;;;;;;;17.37;42.96;99050.56;5132432;27;20047;-64
2023/10/19 11:48:48;;;;;;;7.18;5.20;;;;;;;17.35;43.09;99049.00;5132370;27;20062;-64
2023/10/19 11:51:19;;;;;;;7.18;5.50;;;;;;;17.30;43.30;99057.59;5132502;27;20043;-64
2023/10/19 11:53:48;;;;;;;7.43;5.22;;;;;;;17.31;43.20;99044.97;5132368;27;20488;-64
2023/10/19 11:56:16;;;;;;;7.25;4.72;;;;;;;17.37;43.22;99036.22;5132552;27;20100;-64
2023/10/19 11:58:46;;;;;;;8.75;5.50;;;;;;;17.45;43.17;99036.22;5132673;27;20039;-64